createdAt,value
2022-09-10T00:01:39.102Z,81.95
2022-09-10T00:04:15.226Z,90.72
2022-09-10T00:06:43.785Z,83.68
2022-09-10T00:09:12.824Z,80.88
2022-09-10T00:11:41.722Z,87.10
2022-09-10T00:14:15.153Z,92.18
2022-09-10T00:16:42.743Z,93.50
2022-09-10T00:19:10.384Z,88.85
2022-09-10T00:21:38.001Z,99.40
2022-09-10T00:24:05.786Z,92.18
2022-09-10T00:26:38.195Z,94.75
2022-09-10T00:29:09.242Z,109.72
2022-09-10T00:31:37.664Z,99.60
2022-09-10T00:34:06.149Z,114.88
2022-09-10T00:36:37.082Z,98.93
2022-09-10T00:39:08.407Z,106.63
2022-09-10T00:41:37.760Z,105.85
2022-09-10T00:44:07.968Z,114.20
2022-09-10T00:46:48.389Z,116.95
2022-09-10T00:49:37.358Z,125.53
2022-09-10T00:52:06.468Z,130.95
2022-09-10T00:54:36.103Z,126.53
2022-09-10T00:57:08.067Z,123.38
2022-09-10T00:59:36.249Z,123.97
2022-09-10T01:02:04.113Z,130.15
2022-09-10T01:04:32.388Z,126.38
2022-09-10T01:09:29.045Z,119.40
2022-09-10T01:12:23.223Z,124.95
2022-09-10T01:15:22.199Z,119.18
2022-09-10T01:17:52.707Z,121.30
2022-09-10T01:20:58.058Z,120.22
2022-09-10T01:23:59.484Z,115.50
2022-09-10T01:26:42.466Z,128.43
2022-09-10T01:29:13.841Z,119.13
2022-09-10T01:32:00.441Z,111.50
2022-09-10T01:34:42.411Z,100.13
2022-09-10T01:37:16.144Z,112.20
2022-09-10T01:39:44.846Z,113.85
2022-09-10T01:42:12.379Z,120.63
2022-09-10T01:44:51.064Z,113.72
2022-09-10T01:47:27.616Z,109.55
2022-09-10T01:50:21.847Z,104.95
2022-09-10T01:53:23.033Z,109.70
2022-09-10T01:56:03.798Z,107.15
2022-09-10T01:58:42.991Z,124.53
2022-09-10T02:01:26.528Z,112.70
2022-09-10T02:03:59.607Z,117.30
2022-09-10T02:06:30.549Z,113.50
2022-09-10T02:09:01.684Z,119.18
2022-09-10T02:11:31.612Z,134.18
2022-09-10T02:14:02.679Z,127.13
2022-09-10T02:16:47.411Z,106.55
2022-09-10T02:19:16.716Z,123.90
2022-09-10T02:21:44.547Z,131.82
2022-09-10T02:24:12.916Z,125.95
2022-09-10T02:26:44.269Z,124.43
2022-09-10T02:29:15.434Z,125.53
2022-09-10T02:31:44.325Z,123.53
2022-09-10T02:34:15.807Z,132.70
2022-09-10T02:36:46.880Z,123.05
2022-09-10T02:39:15.317Z,149.27
2022-09-10T02:41:42.851Z,132.65
2022-09-10T02:44:10.430Z,142.80
2022-09-10T02:46:38.216Z,137.73
2022-09-10T02:49:06.165Z,136.25
2022-09-10T02:51:38.771Z,133.05
2022-09-10T02:54:08.660Z,142.50
2022-09-10T02:56:36.469Z,140.43
2022-09-10T02:59:04.763Z,147.40
2022-09-10T03:04:05.737Z,160.43
2022-09-10T03:06:33.552Z,142.82
2022-09-10T03:09:02.133Z,175.95
2022-09-10T03:11:29.971Z,180.77
2022-09-10T03:13:59.311Z,169.30
2022-09-10T03:16:27.509Z,152.77
2022-09-10T03:18:56.103Z,172.15
2022-09-10T03:21:25.247Z,172.65
2022-09-10T03:23:54.015Z,154.27
2022-09-10T03:26:25.888Z,173.52
2022-09-10T03:28:54.626Z,182.30
2022-09-10T03:31:27.061Z,194.45
2022-09-10T03:33:54.631Z,181.80
2022-09-10T03:36:22.821Z,182.15
2022-09-10T03:38:50.983Z,189.77
2022-09-10T03:41:18.530Z,193.82
2022-09-10T03:43:47.206Z,194.60
2022-09-10T03:46:16.077Z,175.32
2022-09-10T03:48:45.681Z,165.35
2022-09-10T03:53:42.095Z,147.77
2022-09-10T03:56:13.260Z,180.27
2022-09-10T03:58:41.609Z,147.15
2022-09-10T04:01:10.655Z,157.25
2022-09-10T04:03:42.195Z,144.93
2022-09-10T04:06:11.029Z,155.18
2022-09-10T04:08:39.773Z,147.93
2022-09-10T04:11:10.093Z,151.27
2022-09-10T04:13:37.682Z,144.50
2022-09-10T04:16:05.523Z,145.73
2022-09-10T04:18:34.558Z,156.63
2022-09-10T04:21:03.749Z,155.23
2022-09-10T04:23:32.778Z,132.93
2022-09-10T04:26:10.370Z,140.48
2022-09-10T04:28:38.369Z,136.32
2022-09-10T04:31:05.959Z,141.43
2022-09-10T04:33:34.340Z,145.32
2022-09-10T04:36:04.116Z,126.28
2022-09-10T04:38:32.774Z,155.52
2022-09-10T04:41:01.526Z,156.73
2022-09-10T04:43:29.223Z,138.35
2022-09-10T04:45:59.111Z,128.68
2022-09-10T04:48:26.739Z,127.85
2022-09-10T04:51:15.337Z,125.22
2022-09-10T04:53:45.633Z,126.72
2022-09-10T04:56:13.379Z,148.13
2022-09-10T04:58:41.474Z,130.52
2022-09-10T05:03:37.717Z,141.85
2022-09-10T05:06:07.129Z,135.27
2022-09-10T05:11:02.972Z,141.60
2022-09-10T05:13:31.594Z,130.60
2022-09-10T05:16:00.410Z,123.65
2022-09-10T05:18:28.171Z,137.60
2022-09-10T05:20:57.332Z,141.20
2022-09-10T05:23:25.645Z,122.38
2022-09-10T05:25:55.087Z,130.38
2022-09-10T05:28:22.999Z,135.85
2022-09-10T05:30:51.897Z,128.63
2022-09-10T05:33:22.690Z,109.57
2022-09-10T05:35:53.445Z,103.43
2022-09-10T05:38:23.976Z,130.80
2022-09-10T05:40:52.332Z,135.02
2022-09-10T05:43:21.006Z,115.38
2022-09-10T05:45:49.409Z,121.15
2022-09-10T05:48:17.595Z,121.38
2022-09-10T05:53:15.728Z,113.43
2022-09-10T05:55:44.674Z,128.88
2022-09-10T05:58:13.538Z,132.10
2022-09-10T06:00:45.429Z,112.05
2022-09-10T06:03:14.506Z,111.38
2022-09-10T06:05:52.679Z,114.28
2022-09-10T06:08:28.615Z,95.82
2022-09-10T06:11:07.025Z,119.88
2022-09-10T06:13:42.154Z,115.47
2022-09-10T06:16:10.045Z,101.40
2022-09-10T06:18:38.866Z,113.30
2022-09-10T06:21:17.623Z,110.13
2022-09-10T06:23:52.195Z,105.10
2022-09-10T06:26:20.095Z,91.78
2022-09-10T06:28:52.851Z,86.65
2022-09-10T06:31:20.554Z,96.32
2022-09-10T06:33:50.677Z,85.88
2022-09-10T06:36:21.264Z,96.93
2022-09-10T06:38:51.523Z,91.90
2022-09-10T06:41:20.083Z,95.75
2022-09-10T06:43:52.844Z,106.43
2022-09-10T06:47:10.726Z,95.65
2022-09-10T06:49:21.733Z,94.90
2022-09-10T06:54:22.331Z,93.90
2022-09-10T06:56:49.814Z,98.78
2022-09-10T06:59:18.610Z,95.85
2022-09-10T07:01:49.752Z,94.15
2022-09-10T07:04:18.989Z,85.80
2022-09-10T07:06:47.561Z,90.57
2022-09-10T07:09:16.632Z,78.78
2022-09-10T07:11:59.135Z,74.20
2022-09-10T07:14:29.567Z,77.85
2022-09-10T07:16:58.227Z,76.60
2022-09-10T07:19:29.758Z,74.43
2022-09-10T07:21:57.572Z,77.13
2022-09-10T07:24:25.288Z,75.70
2022-09-10T07:27:00.685Z,74.00
2022-09-10T07:29:31.446Z,81.25
2022-09-10T07:32:00.429Z,77.38
2022-09-10T07:34:27.985Z,74.25
2022-09-10T07:36:57.760Z,64.10
2022-09-10T07:39:26.860Z,72.38
2022-09-10T07:41:56.913Z,74.15
2022-09-10T07:44:28.094Z,64.22
2022-09-10T07:46:59.429Z,66.53
2022-09-10T07:49:27.927Z,64.32
2022-09-10T07:51:59.848Z,64.10
2022-09-10T07:54:32.179Z,59.25
2022-09-10T07:57:00.942Z,62.13
2022-09-10T07:59:28.753Z,65.82
2022-09-10T08:02:02.113Z,53.47
2022-09-10T08:04:36.604Z,55.95
2022-09-10T08:07:07.210Z,64.93
2022-09-10T08:09:39.272Z,64.22
2022-09-10T08:12:09.739Z,57.95
2022-09-10T08:14:40.053Z,55.70
2022-09-10T08:17:08.692Z,54.65
2022-09-10T08:19:40.984Z,56.15
2022-09-10T08:22:13.325Z,64.15
2022-09-10T08:24:47.790Z,64.00
2022-09-10T08:27:16.811Z,56.72
2022-09-10T08:29:44.825Z,62.38
2022-09-10T08:34:41.779Z,56.35
2022-09-10T08:37:16.231Z,52.28
2022-09-10T08:39:44.492Z,48.60
2022-09-10T08:42:22.509Z,63.38
2022-09-10T08:44:55.598Z,67.47
2022-09-10T08:47:37.224Z,57.63
2022-09-10T08:50:13.687Z,55.97
2022-09-10T08:52:50.865Z,47.42
2022-09-10T08:55:29.825Z,45.28
2022-09-10T08:58:14.267Z,50.95
2022-09-10T09:00:45.284Z,45.55
2022-09-10T09:03:45.456Z,46.63
2022-09-10T09:06:45.085Z,43.43
2022-09-10T09:09:15.783Z,46.95
2022-09-10T09:12:09.181Z,41.05
2022-09-10T09:14:49.125Z,43.97
2022-09-10T09:17:34.105Z,38.00
2022-09-10T09:20:17.387Z,45.08
2022-09-10T09:22:56.231Z,41.25
2022-09-10T09:25:47.053Z,39.15
2022-09-10T09:28:23.143Z,34.25
2022-09-10T09:30:53.586Z,36.08
2022-09-10T09:33:25.510Z,33.55
2022-09-10T09:36:01.618Z,29.88
2022-09-10T09:38:41.345Z,26.38
2022-09-10T09:41:24.534Z,23.13
2022-09-10T09:43:55.837Z,23.88
2022-09-10T09:46:26.375Z,31.38
2022-09-10T09:49:02.129Z,32.80
2022-09-10T09:51:35.352Z,27.77
2022-09-10T09:56:59.881Z,26.85
2022-09-10T09:59:34.285Z,26.95
2022-09-10T10:02:17.499Z,29.67
2022-09-10T10:04:55.741Z,25.23
2022-09-10T10:10:01.193Z,22.45
2022-09-10T10:12:33.735Z,24.60
2022-09-10T10:15:05.611Z,20.38
2022-09-10T10:17:39.899Z,24.60
2022-09-10T10:20:16.271Z,24.05
2022-09-10T10:22:48.736Z,23.02
2022-09-10T10:25:38.684Z,26.58
2022-09-10T10:28:25.397Z,26.20
2022-09-10T10:30:55.563Z,24.00
2022-09-10T10:33:33.527Z,24.48
2022-09-10T10:36:44.072Z,21.95
2022-09-10T10:40:01.135Z,20.48
2022-09-10T10:42:39.516Z,23.15
2022-09-10T10:45:27.142Z,17.40
2022-09-10T10:48:03.253Z,22.40
2022-09-10T10:50:58.752Z,23.92
2022-09-10T10:53:44.908Z,18.38
2022-09-10T10:56:32.685Z,17.70
2022-09-10T10:59:13.629Z,17.02
2022-09-10T11:02:00.659Z,17.73
2022-09-10T11:04:48.703Z,18.17
2022-09-10T11:07:39.524Z,16.23
2022-09-10T11:10:49.383Z,18.02
2022-09-10T11:13:51.845Z,17.95
2022-09-10T11:16:41.566Z,15.57
2022-09-10T11:19:16.649Z,17.42
2022-09-10T11:21:53.325Z,10.43
2022-09-10T11:24:29.264Z,11.65
2022-09-10T11:27:11.443Z,13.70
2022-09-10T11:30:06.290Z,11.15
2022-09-10T11:33:07.835Z,13.85
2022-09-10T11:35:49.182Z,10.38
2022-09-10T11:38:41.575Z,10.88
2022-09-10T11:41:22.940Z,10.63
2022-09-10T11:44:11.172Z,12.07
2022-09-10T11:46:44.826Z,13.70
2022-09-10T11:49:22.934Z,13.57
2022-09-10T11:51:51.349Z,13.27
2022-09-10T11:54:28.289Z,11.00
2022-09-10T11:57:14.261Z,11.40
2022-09-10T12:00:07.610Z,9.10
2022-09-10T12:03:13.431Z,14.07
2022-09-10T12:06:13.954Z,13.27
2022-09-10T12:09:29.060Z,11.55
2022-09-10T12:12:03.459Z,12.43
2022-09-10T12:14:31.359Z,10.45
2022-09-10T12:17:15.805Z,10.52
2022-09-10T12:19:55.948Z,10.43
2022-09-10T12:22:33.355Z,9.55
2022-09-10T12:25:18.411Z,13.20
2022-09-10T12:27:51.793Z,9.95
2022-09-10T12:30:27.463Z,6.40
2022-09-10T12:33:00.518Z,7.07
2022-09-10T12:35:38.021Z,7.85
2022-09-10T12:38:43.631Z,13.85
2022-09-10T12:41:32.891Z,12.18
2022-09-10T12:44:01.571Z,8.10
2022-09-10T12:46:31.323Z,10.77
2022-09-10T12:49:01.816Z,11.75
2022-09-10T12:51:41.688Z,12.10
2022-09-10T12:54:47.041Z,11.15
2022-09-10T12:57:32.035Z,11.40
2022-09-10T13:00:17.380Z,8.38
2022-09-10T13:02:54.885Z,7.30
2022-09-10T13:06:00.135Z,10.27
2022-09-10T13:08:47.651Z,9.63
2022-09-10T13:11:24.084Z,8.25
2022-09-10T13:14:00.817Z,9.07
2022-09-10T13:16:28.298Z,9.55
2022-09-10T13:19:14.090Z,11.65
2022-09-10T13:21:44.882Z,6.90
2022-09-10T13:24:34.488Z,8.77
2022-09-10T13:27:58.933Z,9.70
2022-09-10T13:45:29.914Z,7.90
2022-09-10T13:48:01.804Z,11.23
2022-09-10T13:50:59.494Z,9.13
2022-09-10T13:53:29.390Z,6.75
2022-09-10T13:55:59.908Z,9.23
2022-09-10T13:58:35.053Z,10.35
2022-09-10T14:01:05.092Z,8.27
2022-09-10T14:03:35.186Z,10.10
2022-09-10T14:06:07.826Z,7.53
2022-09-10T14:08:49.070Z,6.82
2022-09-10T14:11:21.399Z,8.25
2022-09-10T14:13:56.116Z,8.23
2022-09-10T14:16:32.314Z,8.23
2022-09-10T14:19:03.991Z,7.50
2022-09-10T14:21:31.872Z,9.30
2022-09-10T14:23:59.886Z,10.57
2022-09-10T14:26:33.657Z,6.55
2022-09-10T14:29:03.501Z,8.57
2022-09-10T14:31:33.484Z,7.97
2022-09-10T14:34:25.924Z,10.38
2022-09-10T14:36:53.521Z,8.13
2022-09-10T14:39:22.548Z,11.75
2022-09-10T14:42:07.875Z,8.35
2022-09-10T14:44:42.550Z,6.25
2022-09-10T14:47:10.652Z,7.15
2022-09-10T14:52:09.944Z,8.45
2022-09-10T14:54:38.857Z,7.82
2022-09-10T14:57:13.939Z,6.93
2022-09-10T14:59:43.855Z,11.57
2022-09-10T15:02:16.822Z,7.53
2022-09-10T15:04:44.295Z,6.40
2022-09-10T15:07:13.475Z,5.25
2022-09-10T15:09:41.319Z,6.82
2022-09-10T15:12:25.528Z,4.80
2022-09-10T15:14:53.260Z,9.50
2022-09-10T15:17:20.759Z,7.85
2022-09-10T15:19:48.659Z,10.07
2022-09-10T15:22:24.745Z,8.40
2022-09-10T15:25:11.618Z,8.70
2022-09-10T15:27:39.429Z,6.05
2022-09-10T15:30:07.386Z,7.15
2022-09-10T15:35:03.275Z,10.23
2022-09-10T15:40:15.996Z,6.03
2022-09-10T15:45:11.306Z,9.00
2022-09-10T15:47:39.347Z,7.13
2022-09-10T15:52:35.045Z,8.52
2022-09-10T15:55:02.640Z,13.07
2022-09-10T15:57:33.690Z,7.18
2022-09-10T16:00:04.512Z,9.23
2022-09-10T16:02:32.331Z,6.07
2022-09-10T16:05:05.993Z,7.05
2022-09-10T16:07:33.466Z,10.13
2022-09-10T16:10:01.253Z,9.93
2022-09-10T16:12:28.810Z,7.78
2022-09-10T16:14:56.245Z,10.40
2022-09-10T16:17:24.586Z,9.60
2022-09-10T16:19:53.887Z,12.43
2022-09-10T16:22:21.494Z,10.93
2022-09-10T16:24:51.989Z,10.70
2022-09-10T16:27:19.875Z,11.63
2022-09-10T16:29:48.466Z,7.82
2022-09-10T16:32:15.903Z,6.82
2022-09-10T16:34:43.431Z,8.60
2022-09-10T16:37:10.866Z,8.30
2022-09-10T16:39:38.376Z,8.50
2022-09-10T16:42:06.004Z,10.40
2022-09-10T16:44:33.564Z,8.45
2022-09-10T16:47:01.845Z,6.57
2022-09-10T16:49:29.260Z,13.20
2022-09-10T16:51:57.040Z,8.05
2022-09-10T16:54:26.607Z,10.55
2022-09-10T16:56:54.158Z,10.10
2022-09-10T16:59:23.365Z,9.70
2022-09-10T17:01:52.551Z,11.82
2022-09-10T17:04:29.015Z,7.38
2022-09-10T17:06:57.709Z,9.80
2022-09-10T17:09:25.967Z,11.35
2022-09-10T17:14:21.047Z,9.25
2022-09-10T17:16:48.747Z,8.00
2022-09-10T17:19:19.504Z,10.93
2022-09-10T17:21:51.533Z,10.55
2022-09-10T17:24:22.502Z,9.32
2022-09-10T17:26:51.189Z,10.13
2022-09-10T17:29:24.669Z,9.65
2022-09-10T17:31:52.728Z,14.43
2022-09-10T17:34:21.610Z,11.85
2022-09-10T17:36:49.350Z,15.13
2022-09-10T17:39:17.222Z,16.60
2022-09-10T17:41:46.035Z,12.15
2022-09-10T17:44:14.628Z,9.23
2022-09-10T17:46:42.909Z,9.73
2022-09-10T17:49:13.915Z,10.25
2022-09-10T17:51:42.613Z,10.23
2022-09-10T17:54:10.435Z,9.93
2022-09-10T17:56:38.152Z,7.22
2022-09-10T17:59:06.048Z,13.38
2022-09-10T18:01:37.720Z,7.88
2022-09-10T18:04:07.536Z,7.10
2022-09-10T18:06:38.494Z,10.15
2022-09-10T18:09:07.140Z,10.05
2022-09-10T18:11:40.049Z,7.45
2022-09-10T18:14:08.333Z,11.40
2022-09-10T18:16:37.822Z,10.80
2022-09-10T18:19:13.917Z,13.45
2022-09-10T18:21:43.629Z,10.35
2022-09-10T18:24:20.843Z,15.07
2022-09-10T18:26:49.901Z,15.93
2022-09-10T18:29:20.767Z,14.63
2022-09-10T18:31:51.399Z,17.73
2022-09-10T18:34:23.168Z,18.88
2022-09-10T18:36:54.814Z,16.35
2022-09-10T18:39:23.714Z,15.30
2022-09-10T18:41:51.667Z,14.93
2022-09-10T18:44:22.417Z,13.20
2022-09-10T18:46:52.635Z,11.85
2022-09-10T18:49:24.225Z,11.73
2022-09-10T18:51:52.975Z,11.88
2022-09-10T18:54:21.938Z,14.10
2022-09-10T18:56:50.208Z,15.18
2022-09-10T18:59:23.162Z,13.70
2022-09-10T19:01:53.681Z,15.50
2022-09-10T19:04:24.144Z,13.40
2022-09-10T19:06:52.275Z,13.40
2022-09-10T19:11:50.341Z,19.65
2022-09-10T19:14:26.012Z,17.13
2022-09-10T19:16:54.883Z,18.27
2022-09-10T19:19:25.014Z,19.52
2022-09-10T19:22:02.685Z,20.83
2022-09-10T19:27:19.051Z,18.00
2022-09-10T19:29:47.281Z,19.00
2022-09-10T19:34:42.753Z,17.70
2022-09-10T19:37:10.510Z,18.48
2022-09-10T19:39:38.186Z,15.52
2022-09-10T19:42:06.760Z,18.80
2022-09-10T19:44:34.412Z,18.15
2022-09-10T19:47:04.080Z,18.95
2022-09-10T19:49:31.889Z,17.95
2022-09-10T19:51:59.397Z,17.63
2022-09-10T19:54:28.529Z,20.92
2022-09-10T19:56:56.459Z,18.20
2022-09-10T19:59:24.004Z,18.35
2022-09-10T20:01:51.617Z,19.58
2022-09-10T20:04:19.296Z,16.90
2022-09-10T20:06:47.705Z,17.92
2022-09-10T20:09:15.209Z,16.30
2022-09-10T20:11:42.928Z,17.02
2022-09-10T20:14:13.336Z,19.55
2022-09-10T20:16:44.299Z,18.35
2022-09-10T20:19:13.753Z,18.92
2022-09-10T20:21:44.028Z,18.50
2022-09-10T20:24:11.506Z,21.02
2022-09-10T20:26:41.277Z,18.98
2022-09-10T20:29:14.140Z,26.38
2022-09-10T20:31:43.226Z,21.67
2022-09-10T20:34:13.451Z,24.58
2022-09-10T20:36:44.080Z,22.30
2022-09-10T20:39:17.079Z,23.83
2022-09-10T20:41:45.011Z,23.60
2022-09-10T20:44:15.540Z,22.77
2022-09-10T20:46:43.987Z,25.83
2022-09-10T20:49:13.676Z,22.80
2022-09-10T20:51:41.456Z,23.40
2022-09-10T20:54:16.730Z,30.10
2022-09-10T20:56:45.326Z,25.65
2022-09-10T20:59:15.584Z,27.63
2022-09-10T21:01:45.817Z,27.98
2022-09-10T21:04:13.948Z,27.55
2022-09-10T21:06:41.576Z,28.20
2022-09-10T21:09:10.343Z,26.95
2022-09-10T21:11:38.540Z,26.98
2022-09-10T21:16:37.556Z,29.00
2022-09-10T21:19:11.837Z,34.67
2022-09-10T21:21:40.548Z,33.38
2022-09-10T21:24:11.793Z,32.50
2022-09-10T21:26:41.069Z,35.72
2022-09-10T21:29:12.178Z,32.58
2022-09-10T21:31:39.891Z,35.10
2022-09-10T21:34:08.067Z,32.47
2022-09-10T21:39:06.285Z,29.25
2022-09-10T21:41:43.751Z,30.50
2022-09-10T21:44:14.320Z,28.15
2022-09-10T21:46:44.053Z,34.97
2022-09-10T21:49:12.954Z,29.42
2022-09-10T21:51:41.432Z,33.65
2022-09-10T21:54:15.375Z,33.38
2022-09-10T21:56:43.043Z,31.25
2022-09-10T21:59:12.233Z,37.70
2022-09-10T22:01:42.221Z,34.00
2022-09-10T22:04:11.172Z,35.28
2022-09-10T22:06:39.491Z,37.25
2022-09-10T22:11:46.828Z,37.90
2022-09-10T22:14:17.118Z,38.38
2022-09-10T22:16:45.475Z,37.13
2022-09-10T22:19:18.073Z,36.65
2022-09-10T22:21:46.257Z,31.08
2022-09-10T22:26:44.414Z,29.83
2022-09-10T22:29:15.236Z,33.38
2022-09-10T22:31:42.920Z,35.40
2022-09-10T22:34:15.844Z,33.38
2022-09-10T22:36:44.869Z,27.02
2022-09-10T22:39:19.908Z,33.63
2022-09-10T22:41:48.925Z,31.67
2022-09-10T22:44:18.060Z,34.28
2022-09-10T22:46:45.773Z,30.02
2022-09-10T22:49:15.993Z,32.95
2022-09-10T22:51:43.997Z,31.42
2022-09-10T22:54:11.878Z,32.78
2022-09-10T22:56:39.861Z,29.92
2022-09-10T22:59:11.186Z,28.98
2022-09-10T23:01:38.906Z,27.40
2022-09-10T23:04:07.763Z,32.00
2022-09-10T23:06:38.471Z,27.40
2022-09-10T23:09:13.923Z,31.42
2022-09-10T23:11:42.289Z,30.05
2022-09-10T23:14:17.643Z,30.70
2022-09-10T23:16:51.783Z,27.88
2022-09-10T23:19:21.616Z,26.98
2022-09-10T23:21:53.856Z,26.73
2022-09-10T23:24:24.284Z,28.42
2022-09-10T23:26:53.098Z,31.70
2022-09-10T23:29:22.961Z,31.90
2022-09-10T23:31:53.320Z,27.35
2022-09-10T23:34:21.097Z,29.27
2022-09-10T23:36:49.431Z,35.60
2022-09-10T23:39:20.111Z,32.42
2022-09-10T23:41:49.707Z,29.70
2022-09-10T23:44:17.783Z,30.05
2022-09-10T23:46:45.370Z,36.63
2022-09-10T23:49:12.982Z,35.75
2022-09-10T23:51:40.999Z,36.22
2022-09-10T23:54:10.483Z,33.47
2022-09-10T23:56:39.046Z,30.20
2022-09-10T23:59:06.555Z,36.08
